Time;durP1;ratioP1;P1;durP2;ratioP2;P2;SDS_P1;SDS_P2;PMS_P1;PMS_P2;Temp;Humidity;BMP_temperature;BMP_pressure;BME280_temperature;BME280_humidity;BME280_pressure;Samples;Min_cycle;Max_cycle;Signal;HPM_P1;HPM_P2
2022/06/29 00:00:22;;;;;;;5.93;3.58;;;16.00;99.90;;;;;;5112236;28;20100;-65
2022/06/29 00:02:48;;;;;;;6.38;3.20;;;15.90;99.90;;;;;;5111398;28;20055;-64
2022/06/29 00:05:16;;;;;;;5.63;3.30;;;15.90;99.90;;;;;;5112364;28;20051;-66
2022/06/29 00:07:43;;;;;;;6.05;3.25;;;15.80;99.90;;;;;;5091174;28;20020;-65
2022/06/29 00:10:10;;;;;;;12.43;3.17;;;15.80;99.90;;;;;;5091564;28;20562;-63
2022/06/29 00:12:36;;;;;;;10.65;3.40;;;15.70;99.90;;;;;;5091475;28;20024;-66
2022/06/29 00:15:02;;;;;;;7.03;2.95;;;15.70;99.90;;;;;;5091362;28;20618;-64
2022/06/29 00:17:29;;;;;;;5.35;3.13;;;15.60;99.90;;;;;;5090808;28;20024;-63
2022/06/29 00:19:55;;;;;;;4.30;2.95;;;15.70;99.90;;;;;;5091286;28;20013;-64
2022/06/29 00:22:20;;;;;;;8.23;3.45;;;15.60;99.90;;;;;;5111074;28;20031;-64
2022/06/29 00:24:46;;;;;;;4.47;3.15;;;15.50;99.90;;;;;;5111102;28;20103;-65
2022/06/29 00:27:12;;;;;;;5.28;3.47;;;15.60;99.90;;;;;;5111398;28;20024;-65
2022/06/29 00:29:37;;;;;;;8.77;3.28;;;15.60;99.90;;;;;;5111392;28;20028;-66
2022/06/29 00:32:04;;;;;;;4.88;2.83;;;15.60;99.90;;;;;;5110689;28;20500;-65
2022/06/29 00:34:30;;;;;;;3.53;2.83;;;15.50;99.90;;;;;;5110490;28;20024;-65
2022/06/29 00:36:55;;;;;;;4.53;3.13;;;15.60;99.90;;;;;;5111201;28;20393;-63
2022/06/29 00:39:21;;;;;;;5.07;3.20;;;15.60;99.90;;;;;;5111194;28;20081;-64
2022/06/29 00:41:47;;;;;;;6.82;2.88;;;15.50;99.90;;;;;;5110874;28;20425;-64
2022/06/29 00:44:17;;;;;;;8.13;3.15;;;15.40;99.90;;;;;;5111221;28;20067;-65
2022/06/29 00:46:51;;;;;;;4.95;2.33;;;15.40;99.90;;;;;;5110511;28;20024;-64
2022/06/29 00:49:20;;;;;;;6.47;2.70;;;15.40;99.90;;;;;;5111266;28;20030;-64
2022/06/29 00:51:49;;;;;;;3.50;2.70;;;15.40;99.90;;;;;;5109762;28;20032;-64
2022/06/29 00:54:24;;;;;;;10.05;2.95;;;15.40;99.90;;;;;;5110142;28;20026;-64
2022/06/29 00:56:50;;;;;;;4.60;2.72;;;15.30;99.90;;;;;;5109314;28;20066;-64
2022/06/29 00:59:24;;;;;;;4.30;2.80;;;15.40;99.90;;;;;;5110441;28;20123;-64
2022/06/29 01:01:50;;;;;;;5.88;3.05;;;15.40;99.90;;;;;;5110485;28;20020;-63
2022/06/29 01:04:15;;;;;;;5.00;3.00;;;15.40;99.90;;;;;;5110858;28;20031;-64
2022/06/29 01:06:41;;;;;;;4.10;3.08;;;15.40;99.90;;;;;;5111167;28;20512;-63
2022/06/29 01:09:07;;;;;;;3.47;2.85;;;15.40;99.90;;;;;;5110367;28;20460;-64
2022/06/29 01:11:33;;;;;;;3.65;2.97;;;15.30;99.90;;;;;;5110813;28;20106;-63
2022/06/29 01:13:59;;;;;;;5.25;3.10;;;15.30;99.90;;;;;;5110013;28;20408;-64
2022/06/29 01:16:26;;;;;;;3.75;2.67;;;15.20;99.90;;;;;;5110664;28;20043;-64
2022/06/29 01:18:51;;;;;;;3.20;2.60;;;15.20;99.90;;;;;;5110849;28;20368;-64
2022/06/29 01:21:20;;;;;;;4.35;3.15;;;15.20;99.90;;;;;;5110452;28;20081;-64
2022/06/29 01:23:46;;;;;;;4.72;3.33;;;15.10;99.90;;;;;;5110182;28;20038;-64
2022/06/29 01:26:12;;;;;;;11.98;3.40;;;15.10;99.90;;;;;;5110460;28;20027;-64
2022/06/29 01:28:44;;;;;;;10.38;3.28;;;15.10;99.90;;;;;;5109074;28;20423;-64
2022/06/29 01:31:18;;;;;;;5.03;3.15;;;15.10;99.90;;;;;;5109915;28;20525;-64
2022/06/29 01:33:44;;;;;;;8.18;3.63;;;15.10;99.90;;;;;;5110198;28;20122;-64
2022/06/29 01:36:12;;;;;;;5.45;2.85;;;15.00;99.90;;;;;;5110251;28;20031;-64
2022/06/29 01:38:38;;;;;;;7.07;3.63;;;14.90;99.90;;;;;;5110354;28;20069;-64
2022/06/29 01:41:07;;;;;;;5.22;3.22;;;14.90;99.90;;;;;;5109853;28;20049;-65
2022/06/29 01:43:32;;;;;;;6.75;4.22;;;14.90;99.90;;;;;;5110101;28;20525;-64
2022/06/29 01:45:58;;;;;;;8.63;3.55;;;14.90;99.90;;;;;;5112580;28;20165;-64
2022/06/29 01:48:24;;;;;;;6.32;3.45;;;14.80;99.90;;;;;;5114698;28;20039;-64
2022/06/29 01:50:50;;;;;;;6.20;3.60;;;14.80;99.90;;;;;;5114034;28;20024;-65
2022/06/29 01:53:16;;;;;;;3.88;3.33;;;14.80;99.90;;;;;;5114041;28;20027;-63
2022/06/29 01:55:44;;;;;;;3.90;3.45;;;14.80;99.90;;;;;;5114164;28;20110;-62
2022/06/29 01:58:10;;;;;;;6.85;3.47;;;14.80;99.90;;;;;;5113922;28;20031;-64
2022/06/29 02:00:36;;;;;;;5.07;3.22;;;14.80;99.90;;;;;;5113438;28;20031;-66
2022/06/29 02:03:02;;;;;;;10.57;3.65;;;14.80;99.90;;;;;;5113892;28;20028;-64
2022/06/29 02:05:27;;;;;;;5.25;3.70;;;14.80;99.90;;;;;;5113998;28;20093;-64
2022/06/29 02:07:53;;;;;;;5.57;3.67;;;14.80;99.90;;;;;;5113686;28;20080;-64
2022/06/29 02:10:18;;;;;;;9.88;3.67;;;14.90;99.90;;;;;;5114105;28;20040;-63
2022/06/29 02:12:44;;;;;;;5.38;3.38;;;14.90;99.90;;;;;;5113200;28;20033;-63
2022/06/29 02:15:10;;;;;;;10.95;4.00;;;14.90;99.90;;;;;;5113599;28;20031;-64
2022/06/29 02:17:35;;;;;;;6.75;3.67;;;14.80;99.90;;;;;;5114018;28;20451;-64
2022/06/29 02:20:01;;;;;;;5.07;3.80;;;14.90;99.90;;;;;;5113932;28;20024;-64
2022/06/29 02:22:26;;;;;;;7.80;4.00;;;14.90;99.90;;;;;;5112911;28;20032;-64
2022/06/29 02:24:52;;;;;;;6.47;4.00;;;14.80;99.90;;;;;;5113698;28;20027;-64
2022/06/29 02:27:18;;;;;;;6.78;3.88;;;14.80;99.90;;;;;;5113628;28;20038;-63
2022/06/29 02:29:44;;;;;;;7.03;3.45;;;14.80;99.90;;;;;;5113275;28;20481;-63
2022/06/29 02:34:54;;;;;;;5.13;3.90;;;14.70;99.90;;;;;;5113237;28;20030;-63
2022/06/29 02:37:19;;;;;;;4.70;3.42;;;14.60;99.90;;;;;;5113591;28;20480;-64
2022/06/29 02:39:45;;;;;;;4.43;3.72;;;14.60;99.90;;;;;;5113588;28;20016;-62
2022/06/29 02:42:12;;;;;;;5.97;3.80;;;14.50;99.90;;;;;;5112956;28;20842;-64
2022/06/29 02:44:38;;;;;;;9.20;4.28;;;14.60;99.90;;;;;;5093105;28;20573;-64
2022/06/29 02:47:05;;;;;;;9.05;4.78;;;14.60;99.90;;;;;;5092913;28;20028;-65
2022/06/29 02:49:31;;;;;;;8.45;4.10;;;14.60;99.90;;;;;;5092821;28;20031;-64
2022/06/29 02:51:56;;;;;;;7.63;4.10;;;14.50;99.90;;;;;;5092512;28;20028;-64
2022/06/29 02:54:22;;;;;;;6.25;4.20;;;14.50;99.90;;;;;;5096033;28;20020;-66
2022/06/29 02:56:47;;;;;;;7.32;4.07;;;14.40;99.90;;;;;;5113542;28;20034;-65
2022/06/29 02:59:13;;;;;;;5.75;4.30;;;14.40;99.90;;;;;;5113230;28;20015;-65
2022/06/29 03:01:38;;;;;;;7.57;4.20;;;14.40;99.90;;;;;;5112525;28;20084;-64
2022/06/29 03:04:04;;;;;;;8.85;4.25;;;14.30;99.90;;;;;;5113055;28;20027;-65
2022/06/29 03:06:30;;;;;;;8.35;4.25;;;14.40;99.90;;;;;;5094590;28;20035;-65
2022/06/29 03:08:55;;;;;;;6.32;4.88;;;14.30;99.90;;;;;;5112691;28;20053;-65
2022/06/29 03:11:21;;;;;;;6.10;4.43;;;14.40;99.90;;;;;;5112646;28;20030;-64
2022/06/29 03:13:47;;;;;;;4.30;3.78;;;14.30;99.90;;;;;;5112249;28;20023;-64
2022/06/29 03:16:12;;;;;;;6.03;4.13;;;14.30;99.90;;;;;;5112880;28;20012;-64
2022/06/29 03:18:38;;;;;;;10.32;4.72;;;14.30;99.90;;;;;;5112643;28;20062;-63
2022/06/29 03:21:04;;;;;;;6.85;4.55;;;14.20;99.90;;;;;;5112302;28;20024;-63
2022/06/29 03:23:29;;;;;;;6.03;4.35;;;14.20;99.90;;;;;;5112086;28;20034;-63
2022/06/29 03:25:55;;;;;;;8.95;4.35;;;14.20;99.90;;;;;;5111626;28;20024;-63
2022/06/29 03:28:20;;;;;;;7.65;4.97;;;14.20;99.90;;;;;;5112785;28;20034;-63
2022/06/29 03:30:46;;;;;;;7.38;4.65;;;14.20;99.90;;;;;;5112536;28;20031;-63
2022/06/29 03:33:11;;;;;;;8.18;4.82;;;14.30;99.90;;;;;;5111609;28;20401;-64
2022/06/29 03:35:37;;;;;;;6.28;4.40;;;14.30;99.90;;;;;;5133016;22;20043;-64
2022/06/29 03:38:03;;;;;;;6.50;4.15;;;14.30;99.90;;;;;;5069748;28;20494;-60
2022/06/29 03:40:28;;;;;;;7.05;4.93;;;14.30;99.90;;;;;;5071094;28;20028;-60
2022/06/29 03:42:55;;;;;;;12.90;4.63;;;14.30;99.90;;;;;;5070823;28;20032;-61
2022/06/29 03:45:22;;;;;;;11.82;4.80;;;14.30;99.90;;;;;;5070682;28;20021;-62
2022/06/29 03:47:47;;;;;;;9.50;4.82;;;14.30;99.90;;;;;;5071462;28;20028;-62
2022/06/29 03:50:13;;;;;;;6.78;4.13;;;14.40;99.90;;;;;;5070568;28;20036;-62
2022/06/29 03:52:39;;;;;;;4.95;3.95;;;14.40;99.90;;;;;;5070523;28;20020;-62
2022/06/29 03:55:06;;;;;;;6.32;4.43;;;14.40;99.90;;;;;;5071126;28;20044;-62
2022/06/29 03:57:31;;;;;;;4.57;3.92;;;14.30;99.90;;;;;;5071140;28;20025;-61
2022/06/29 03:59:57;;;;;;;5.72;4.65;;;14.30;99.90;;;;;;5071045;28;20020;-62
2022/06/29 04:02:23;;;;;;;5.22;4.32;;;14.30;99.90;;;;;;5070717;28;20104;-61
2022/06/29 04:04:48;;;;;;;5.85;4.57;;;14.20;99.90;;;;;;5070632;28;20082;-61
2022/06/29 04:07:14;;;;;;;5.72;4.65;;;14.30;99.90;;;;;;5070077;28;20078;-61
2022/06/29 04:09:39;;;;;;;8.85;4.50;;;14.30;99.90;;;;;;5070319;28;20028;-61
2022/06/29 04:12:05;;;;;;;8.05;4.82;;;14.40;99.90;;;;;;5070270;28;20086;-61
2022/06/29 04:14:31;;;;;;;10.27;4.47;;;14.40;99.90;;;;;;5070460;28;20097;-61
2022/06/29 04:16:57;;;;;;;6.45;4.55;;;14.30;99.90;;;;;;5068930;28;20020;-61
2022/06/29 04:19:24;;;;;;;5.97;4.47;;;14.30;99.90;;;;;;5070730;28;20036;-61
2022/06/29 04:21:50;;;;;;;9.93;4.60;;;14.30;99.90;;;;;;5070140;28;20021;-61
2022/06/29 04:24:17;;;;;;;9.30;5.20;;;14.40;99.90;;;;;;5070333;28;20074;-61
2022/06/29 04:26:43;;;;;;;5.97;4.53;;;14.40;99.90;;;;;;5069763;28;20035;-63
2022/06/29 04:29:09;;;;;;;5.55;4.40;;;14.50;99.90;;;;;;5070350;28;20494;-62
2022/06/29 04:31:35;;;;;;;8.85;4.60;;;14.50;99.90;;;;;;5069985;28;20043;-62
2022/06/29 04:34:01;;;;;;;7.95;4.68;;;14.60;99.90;;;;;;5069611;28;20028;-63
2022/06/29 04:36:27;;;;;;;12.00;4.85;;;14.60;99.90;;;;;;5070062;28;20032;-62
2022/06/29 04:38:53;;;;;;;6.38;4.60;;;14.70;99.90;;;;;;5069877;28;20025;-62
2022/06/29 04:41:19;;;;;;;6.57;4.35;;;14.70;99.90;;;;;;5069849;28;20035;-63
2022/06/29 04:43:46;;;;;;;12.70;5.25;;;14.80;99.90;;;;;;5070405;28;20039;-61
2022/06/29 04:46:22;;;;;;;8.15;4.43;;;14.90;99.90;;;;;;5069658;28;20066;-60
2022/06/29 04:48:55;;;;;;;8.75;4.80;;;15.00;99.90;;;;;;5068838;28;20098;-61
2022/06/29 04:51:21;;;;;;;6.53;4.63;;;15.00;99.90;;;;;;5069704;28;20502;-62
2022/06/29 04:53:47;;;;;;;7.90;4.60;;;15.10;99.90;;;;;;5069722;28;20037;-63
2022/06/29 04:56:14;;;;;;;7.18;5.10;;;15.20;99.90;;;;;;5069420;28;20036;-63
2022/06/29 04:58:40;;;;;;;9.80;5.70;;;15.20;99.90;;;;;;5069870;28;20535;-62
2022/06/29 05:01:07;;;;;;;5.65;4.70;;;15.30;99.90;;;;;;5069783;28;20116;-62
2022/06/29 05:03:32;;;;;;;8.32;4.47;;;15.30;99.90;;;;;;5069932;28;20039;-63
2022/06/29 05:05:58;;;;;;;7.28;4.68;;;15.30;99.90;;;;;;5069610;28;20024;-63
2022/06/29 05:08:23;;;;;;;7.60;5.03;;;15.40;99.90;;;;;;5069461;28;20040;-63
2022/06/29 05:10:49;;;;;;;9.45;5.03;;;15.40;99.90;;;;;;5070004;28;20032;-63
2022/06/29 05:13:15;;;;;;;7.93;4.93;;;15.50;99.90;;;;;;5068947;28;20055;-63
2022/06/29 05:15:40;;;;;;;6.88;4.65;;;15.60;99.90;;;;;;5069052;28;20829;-63
2022/06/29 05:18:06;;;;;;;8.25;4.43;;;15.60;99.90;;;;;;5069649;28;20020;-62
2022/06/29 05:20:32;;;;;;;11.60;4.50;;;15.70;99.90;;;;;;5069020;28;20111;-63
2022/06/29 05:22:58;;;;;;;8.27;4.40;;;15.80;99.90;;;;;;5068959;28;20032;-63
2022/06/29 05:25:24;;;;;;;5.57;4.00;;;15.80;99.90;;;;;;5069168;28;20025;-63
2022/06/29 05:27:50;;;;;;;6.22;4.32;;;15.90;99.90;;;;;;5069284;28;20390;-63
2022/06/29 05:30:16;;;;;;;8.05;4.20;;;16.00;99.90;;;;;;5069886;28;20020;-63
2022/06/29 05:32:42;;;;;;;5.82;4.63;;;16.00;99.90;;;;;;5068699;28;20516;-63
2022/06/29 05:35:09;;;;;;;7.70;3.90;;;16.10;99.90;;;;;;5069384;28;20487;-63
2022/06/29 05:37:36;;;;;;;5.45;3.80;;;16.10;99.90;;;;;;5068968;28;20036;-63
2022/06/29 05:40:02;;;;;;;7.88;4.07;;;16.20;99.90;;;;;;5069652;28;20036;-63
2022/06/29 05:42:28;;;;;;;4.38;3.78;;;16.30;99.90;;;;;;5069437;28;20029;-63
2022/06/29 05:44:54;;;;;;;5.88;4.03;;;16.40;99.90;;;;;;5068874;28;20035;-63
2022/06/29 05:47:19;;;;;;;5.95;3.40;;;16.50;99.90;;;;;;5069602;28;20027;-63
2022/06/29 05:49:45;;;;;;;3.97;3.30;;;16.60;99.90;;;;;;5069379;28;20024;-63
2022/06/29 05:52:11;;;;;;;7.93;3.45;;;16.70;99.90;;;;;;5068114;28;20066;-63
2022/06/29 05:54:36;;;;;;;6.35;3.80;;;16.80;99.90;;;;;;5069580;28;20033;-63
2022/06/29 05:57:03;;;;;;;5.05;3.85;;;16.80;99.90;;;;;;5068757;28;20033;-63
2022/06/29 05:59:29;;;;;;;5.82;3.78;;;16.90;99.90;;;;;;5069222;28;20027;-63
2022/06/29 06:01:54;;;;;;;8.63;4.43;;;17.00;99.90;;;;;;5068901;28;20013;-63
2022/06/29 06:04:20;;;;;;;6.72;3.78;;;17.00;99.90;;;;;;5069636;28;20058;-63
2022/06/29 06:06:45;;;;;;;6.50;3.90;;;17.10;99.90;;;;;;5068313;28;20108;-63
2022/06/29 06:09:12;;;;;;;6.13;3.10;;;17.20;99.90;;;;;;5069049;28;20032;-63
2022/06/29 06:11:37;;;;;;;11.85;4.15;;;17.20;99.90;;;;;;5068915;28;20032;-62
2022/06/29 06:14:03;;;;;;;8.10;3.92;;;17.30;99.90;;;;;;5068883;28;20031;-63
2022/06/29 06:16:29;;;;;;;6.60;3.33;;;17.30;99.90;;;;;;5068993;28;20051;-63
2022/06/29 06:18:54;;;;;;;5.55;3.53;;;17.30;99.90;;;;;;5068664;28;20016;-63
2022/06/29 06:21:21;;;;;;;7.00;4.05;;;17.40;99.90;;;;;;5068334;28;20078;-63
2022/06/29 06:23:47;;;;;;;5.95;3.97;;;17.40;99.90;;;;;;5068679;28;20032;-63
2022/06/29 06:26:12;;;;;;;16.15;4.43;;;17.40;99.90;;;;;;5068710;28;20111;-63
2022/06/29 06:28:39;;;;;;;6.25;4.30;;;17.30;99.90;;;;;;5068759;28;20343;-63
2022/06/29 06:31:07;;;;;;;8.75;4.47;;;17.30;99.90;;;;;;5069682;28;20545;-63
2022/06/29 06:33:32;;;;;;;9.60;3.70;;;17.40;99.90;;;;;;5072189;28;20028;-63
2022/06/29 06:35:58;;;;;;;5.53;3.67;;;17.40;99.90;;;;;;5071856;28;20078;-63
2022/06/29 06:38:23;;;;;;;6.20;3.80;;;17.50;99.90;;;;;;5072423;28;20074;-63
2022/06/29 06:43:33;;;;;;;5.93;3.95;;;17.50;99.90;;;;;;5072156;28;20095;-63
2022/06/29 06:45:58;;;;;;;9.13;4.47;;;17.50;99.90;;;;;;5072118;28;20032;-63
2022/06/29 06:48:24;;;;;;;8.43;3.70;;;17.50;99.90;;;;;;5072028;28;20068;-63
2022/06/29 06:50:49;;;;;;;10.90;4.45;;;17.50;99.90;;;;;;5071668;28;20036;-63
2022/06/29 06:53:15;;;;;;;9.05;4.13;;;17.50;99.90;;;;;;5072069;28;20028;-63
2022/06/29 06:55:40;;;;;;;13.52;4.57;;;17.50;99.90;;;;;;5071028;28;20025;-63
2022/06/29 06:58:06;;;;;;;5.93;3.78;;;17.50;99.90;;;;;;5072011;28;20154;-62
2022/06/29 07:00:32;;;;;;;7.15;4.10;;;17.60;99.90;;;;;;5072310;28;20115;-63
2022/06/29 07:02:57;;;;;;;10.57;4.65;;;17.70;99.90;;;;;;5071229;28;20043;-62
2022/06/29 07:05:25;;;;;;;9.63;4.35;;;17.80;99.90;;;;;;5071738;28;20021;-63
2022/06/29 07:07:50;;;;;;;6.45;3.65;;;17.80;99.90;;;;;;5072004;28;20033;-62
2022/06/29 07:10:16;;;;;;;10.82;3.95;;;17.90;99.90;;;;;;5072402;28;20147;-62
2022/06/29 07:12:41;;;;;;;4.97;3.60;;;17.90;99.90;;;;;;5071824;28;20413;-62
2022/06/29 07:15:07;;;;;;;5.65;3.33;;;18.00;99.90;;;;;;5072309;28;20541;-62
2022/06/29 07:17:32;;;;;;;8.45;3.10;;;18.00;99.90;;;;;;5072191;28;20110;-62
2022/06/29 07:19:58;;;;;;;7.53;3.28;;;18.00;99.90;;;;;;5072207;28;20533;-62
2022/06/29 07:22:24;;;;;;;5.97;2.80;;;18.00;99.90;;;;;;5071453;28;20021;-62
2022/06/29 07:24:49;;;;;;;6.60;3.05;;;18.10;99.90;;;;;;5070376;28;20036;-62
2022/06/29 07:27:15;;;;;;;6.47;3.00;;;18.10;99.90;;;;;;5072444;28;20050;-63
2022/06/29 07:29:41;;;;;;;5.55;3.15;;;18.10;99.90;;;;;;5071317;28;20082;-62
2022/06/29 07:32:08;;;;;;;4.05;2.83;;;18.20;99.90;;;;;;5071774;28;20403;-63
2022/06/29 07:34:34;;;;;;;4.30;2.90;;;18.20;99.90;;;;;;5071436;28;20028;-62
2022/06/29 07:36:59;;;;;;;5.40;2.88;;;18.30;99.90;;;;;;5070700;28;20027;-63
2022/06/29 07:39:25;;;;;;;5.40;2.58;;;18.40;99.90;;;;;;5071230;28;20390;-62
2022/06/29 07:41:50;;;;;;;7.30;2.70;;;18.50;99.90;;;;;;5071387;28;20103;-62
2022/06/29 07:44:16;;;;;;;4.70;2.90;;;18.40;99.90;;;;;;5070624;28;20027;-62
2022/06/29 07:46:42;;;;;;;3.58;2.63;;;18.50;99.90;;;;;;5071501;28;20452;-62
2022/06/29 07:49:07;;;;;;;5.32;3.03;;;18.50;99.90;;;;;;5071691;28;20544;-62
2022/06/29 07:51:34;;;;;;;7.43;2.72;;;18.60;99.90;;;;;;5071485;28;20024;-62
2022/06/29 07:53:59;;;;;;;5.30;3.42;;;18.50;99.90;;;;;;5071596;28;20059;-62
2022/06/29 07:56:25;;;;;;;6.50;2.85;;;18.50;99.90;;;;;;5071566;28;20070;-62
2022/06/29 07:58:51;;;;;;;4.30;2.85;;;18.50;99.90;;;;;;5072277;28;20059;-62
2022/06/29 08:01:17;;;;;;;5.57;2.80;;;18.60;99.90;;;;;;5071267;28;20024;-62
2022/06/29 08:03:42;;;;;;;4.43;2.70;;;18.60;99.90;;;;;;5071313;28;20028;-63
2022/06/29 08:06:08;;;;;;;5.43;2.80;;;18.60;99.90;;;;;;5071139;28;20039;-63
2022/06/29 08:08:34;;;;;;;5.68;2.72;;;18.60;99.90;;;;;;5071166;28;20107;-63
2022/06/29 08:11:00;;;;;;;3.63;2.67;;;18.60;99.90;;;;;;5071279;28;20187;-63
2022/06/29 08:13:25;;;;;;;3.03;2.22;;;18.70;99.90;;;;;;5070794;28;20025;-62
2022/06/29 08:15:51;;;;;;;9.13;2.90;;;18.80;99.90;;;;;;5070852;28;20028;-62
2022/06/29 08:18:17;;;;;;;6.97;2.63;;;19.00;99.90;;;;;;5071710;28;20486;-62
2022/06/29 08:20:43;;;;;;;4.88;2.42;;;19.10;99.90;;;;;;5070620;28;20078;-62
2022/06/29 08:23:09;;;;;;;3.00;2.22;;;19.10;99.90;;;;;;5070733;28;20470;-63
2022/06/29 08:25:35;;;;;;;3.63;2.58;;;19.20;99.90;;;;;;5070819;28;20036;-62
2022/06/29 08:28:05;;;;;;;7.07;2.53;;;19.20;99.90;;;;;;5070984;28;20012;-63
2022/06/29 08:30:31;;;;;;;3.70;2.78;;;19.30;99.90;;;;;;5069999;28;20021;-62
2022/06/29 08:32:57;;;;;;;4.95;2.60;;;19.30;99.90;;;;;;5070553;28;20829;-63
2022/06/29 08:35:22;;;;;;;6.32;2.33;;;19.30;99.90;;;;;;5070585;28;20082;-63
2022/06/29 08:37:48;;;;;;;3.35;2.10;;;19.40;99.90;;;;;;5070110;28;20043;-62
2022/06/29 08:40:16;;;;;;;2.97;2.08;;;19.50;99.90;;;;;;5070360;28;20096;-62
2022/06/29 08:42:44;;;;;;;3.35;2.10;;;19.50;99.90;;;;;;5069085;28;20024;-62
2022/06/29 08:45:11;;;;;;;2.55;1.98;;;19.60;99.90;;;;;;5070628;28;20028;-63
2022/06/29 08:47:37;;;;;;;3.40;2.13;;;19.60;99.90;;;;;;5070619;28;20028;-62
2022/06/29 08:50:08;;;;;;;3.63;2.63;;;19.70;99.90;;;;;;5070372;28;20111;-61
2022/06/29 08:52:37;;;;;;;6.88;2.03;;;19.80;99.90;;;;;;5070120;28;20027;-62
2022/06/29 08:55:05;;;;;;;5.53;1.63;;;19.90;99.90;;;;;;5069376;28;20478;-61
2022/06/29 08:57:34;;;;;;;5.32;2.42;;;20.00;99.90;;;;;;5070896;28;20441;-63
2022/06/29 09:00:00;;;;;;;2.25;1.65;;;20.00;99.90;;;;;;5071081;28;20505;-63
2022/06/29 09:02:25;;;;;;;2.83;1.95;;;20.10;99.90;;;;;;5069964;28;20031;-63
2022/06/29 09:04:53;;;;;;;3.95;2.28;;;20.10;99.90;;;;;;5070254;28;20078;-62
2022/06/29 09:07:19;;;;;;;2.83;1.70;;;20.30;99.90;;;;;;5069689;28;20460;-63
2022/06/29 09:09:58;;;;;;;5.50;1.88;;;20.30;99.90;;;;;;5070341;28;20029;-63
2022/06/29 09:12:23;;;;;;;2.28;2.00;;;20.40;99.90;;;;;;5069945;28;20108;-63
2022/06/29 09:14:49;;;;;;;4.32;1.75;;;20.40;99.90;;;;;;5070181;28;20574;-63
2022/06/29 09:17:17;;;;;;;2.15;1.65;;;20.50;99.90;;;;;;5069934;28;20124;-63
2022/06/29 09:19:45;;;;;;;4.93;2.35;;;20.60;99.90;;;;;;5069964;28;20108;-63
2022/06/29 09:22:11;;;;;;;5.35;2.15;;;20.70;99.90;;;;;;5070248;28;20051;-62
2022/06/29 09:24:37;;;;;;;2.97;2.22;;;20.70;99.90;;;;;;5070088;28;20024;-62
2022/06/29 09:27:08;;;;;;;2.97;1.92;;;20.90;99.90;;;;;;5070361;28;20036;-63
2022/06/29 09:29:36;;;;;;;4.65;2.08;;;21.00;99.90;;;;;;5069950;28;20086;-63
2022/06/29 09:32:04;;;;;;;3.55;1.98;;;21.10;99.90;;;;;;5069770;28;20025;-63
2022/06/29 09:34:44;;;;;;;2.53;2.08;;;21.20;99.90;;;;;;5069913;28;20024;-62
2022/06/29 09:37:15;;;;;;;4.53;2.10;;;21.20;99.90;;;;;;5095709;22;20048;-58
2022/06/29 09:39:41;;;;;;;12.73;2.28;;;21.30;99.90;;;;;;5089924;28;20031;-60
2022/06/29 09:42:22;;;;;;;3.42;2.03;;;21.50;99.90;;;;;;5088349;28;20012;-61
2022/06/29 09:44:48;;;;;;;4.15;1.98;;;21.50;99.90;;;;;;5089254;28;20129;-59
2022/06/29 09:47:16;;;;;;;2.60;2.05;;;21.70;99.90;;;;;;5088784;28;20020;-59
2022/06/29 09:49:43;;;;;;;3.50;2.15;;;21.80;99.90;;;;;;5089280;28;20020;-58
2022/06/29 09:52:10;;;;;;;6.28;2.22;;;21.90;99.90;;;;;;5070355;28;20675;-58
2022/06/29 09:54:44;;;;;;;5.57;2.78;;;22.20;99.90;;;;;;5068966;28;20100;-59
2022/06/29 09:57:12;;;;;;;3.10;2.00;;;22.20;99.90;;;;;;5088216;28;20024;-58
2022/06/29 10:02:43;;;;;;;3.95;2.70;;;22.10;99.90;;;;;;5089055;28;20050;-55
2022/06/29 10:05:16;;;;;;;6.80;2.00;;;22.10;99.90;;;;;;5087415;28;20035;-56
2022/06/29 10:07:47;;;;;;;4.43;1.80;;;22.20;99.90;;;;;;5092526;28;20043;-57
2022/06/29 10:10:24;;;;;;;4.22;1.83;;;22.50;99.90;;;;;;5093174;28;20115;-58
2022/06/29 10:15:55;;;;;;;3.45;1.90;;;22.70;99.90;;;;;;5092851;28;20051;-57
2022/06/29 10:18:48;;;;;;;2.17;1.85;;;22.80;99.90;;;;;;5092882;28;20907;-56
2022/06/29 10:21:20;;;;;;;4.30;2.00;;;23.00;99.90;;;;;;5073098;28;20060;-58
2022/06/29 10:23:58;;;;;;;4.28;2.13;;;23.10;99.90;;;;;;5075397;28;20127;-56
2022/06/29 10:26:34;;;;;;;2.85;1.70;;;23.20;99.90;;;;;;5093203;28;20038;-59
2022/06/29 10:29:06;;;;;;;4.25;2.00;;;23.50;99.90;;;;;;5092788;28;20405;-59
2022/06/29 10:31:53;;;;;;;3.50;1.77;;;23.60;99.90;;;;;;5093004;28;20365;-60
2022/06/29 10:34:31;;;;;;;2.88;1.85;;;23.60;99.90;;;;;;5085148;28;20232;-60
2022/06/29 10:37:13;;;;;;;3.75;2.22;;;23.60;99.90;;;;;;5073472;28;20082;-60
2022/06/29 10:39:50;;;;;;;7.05;1.90;;;23.60;99.90;;;;;;5073563;28;20027;-60
2022/06/29 10:45:13;;;;;;;2.58;1.73;;;23.80;99.90;;;;;;5073497;28;20102;-57
2022/06/29 10:47:39;;;;;;;3.25;1.75;;;23.80;99.90;;;;;;5072358;28;20035;-58
2022/06/29 10:50:13;;;;;;;3.45;1.80;;;23.90;99.90;;;;;;5082774;28;20029;-56
2022/06/29 10:52:39;;;;;;;1.90;1.73;;;24.00;99.90;;;;;;5073117;28;20036;-59
2022/06/29 10:55:06;;;;;;;2.50;1.80;;;23.80;99.90;;;;;;5074281;28;20047;-57
2022/06/29 10:57:35;;;;;;;2.03;1.83;;;23.80;99.90;;;;;;5073053;28;20103;-58
2022/06/29 11:00:08;;;;;;;3.13;1.92;;;23.70;99.90;;;;;;5073095;28;20344;-58
2022/06/29 11:02:34;;;;;;;3.33;2.10;;;23.50;99.90;;;;;;5072854;28;20607;-58
2022/06/29 11:05:00;;;;;;;3.17;2.30;;;23.60;99.90;;;;;;5072821;28;20029;-58
2022/06/29 11:12:56;;;;;;;3.30;1.90;;;23.80;99.90;;;;;;5092860;28;19965;-57
2022/06/29 11:15:41;;;;;;;4.07;1.77;;;24.10;99.90;;;;;;5093120;28;20035;-59
2022/06/29 11:18:12;;;;;;;2.13;1.35;;;24.30;99.90;;;;;;5092813;28;20024;-58
2022/06/29 11:20:42;;;;;;;2.78;1.65;;;24.90;99.90;;;;;;5092865;28;20028;-59
2022/06/29 11:23:12;;;;;;;1.65;1.30;;;25.20;99.90;;;;;;5088588;28;20035;-59
2022/06/29 11:25:47;;;;;;;1.75;1.38;;;25.20;99.90;;;;;;5073826;28;20047;-58
2022/06/29 11:28:13;;;;;;;3.30;1.65;;;25.30;99.90;;;;;;5082605;28;20054;-56
2022/06/29 11:30:39;;;;;;;2.70;1.38;;;25.80;99.90;;;;;;5090835;28;20536;-56
2022/06/29 11:33:12;;;;;;;1.88;1.33;;;26.10;99.90;;;;;;5073896;28;20056;-57
2022/06/29 11:35:39;;;;;;;3.03;1.55;;;25.80;99.90;;;;;;5072469;28;20023;-60
2022/06/29 11:38:07;;;;;;;1.85;1.60;;;26.00;99.90;;;;;;5072163;28;20055;-61
2022/06/29 11:40:37;;;;;;;3.67;1.50;;;26.50;99.90;;;;;;5072314;28;20094;-60
2022/06/29 11:43:09;;;;;;;2.85;1.45;;;25.80;99.90;;;;;;5072093;28;20123;-60
2022/06/29 11:45:45;;;;;;;1.45;1.35;;;26.00;99.90;;;;;;5071970;28;20028;-58
2022/06/29 11:48:15;;;;;;;3.53;1.67;;;25.40;99.90;;;;;;5072054;28;20024;-58
2022/06/29 11:50:43;;;;;;;2.75;1.67;;;25.30;99.90;;;;;;5072106;28;20027;-60
2022/06/29 11:53:08;;;;;;;2.47;1.60;;;25.40;99.90;;;;;;5071519;28;20433;-58
2022/06/29 11:55:45;;;;;;;3.55;1.45;;;25.50;99.90;;;;;;5086800;28;20028;-60
2022/06/29 11:58:13;;;;;;;2.40;1.30;;;26.00;99.90;;;;;;5091900;28;20549;-59
2022/06/29 12:00:39;;;;;;;1.85;1.42;;;26.10;99.90;;;;;;5092021;28;20103;-60
2022/06/29 12:03:08;;;;;;;3.85;1.77;;;25.60;99.90;;;;;;5091964;28;20024;-60
2022/06/29 12:05:34;;;;;;;1.50;1.40;;;25.30;99.90;;;;;;5091857;28;20599;-60
2022/06/29 12:08:00;;;;;;;3.38;1.58;;;25.20;99.90;;;;;;5088944;28;20024;-60
2022/06/29 12:10:26;;;;;;;3.30;1.58;;;25.70;99.90;;;;;;5071655;28;20048;-57
2022/06/29 12:12:51;;;;;;;1.90;1.48;;;26.00;99.90;;;;;;5071117;28;20024;-60
2022/06/29 12:15:17;;;;;;;1.42;1.30;;;26.50;99.90;;;;;;5071595;28;20028;-59
2022/06/29 12:17:45;;;;;;;1.83;1.65;;;25.90;99.90;;;;;;5071309;28;20047;-60
2022/06/29 12:20:11;;;;;;;3.03;1.90;;;26.10;99.90;;;;;;5071379;28;20411;-60
2022/06/29 12:22:37;;;;;;;2.80;1.65;;;26.60;99.90;;;;;;5071729;28;20058;-57
2022/06/29 12:25:03;;;;;;;2.05;1.83;;;26.40;99.90;;;;;;5090569;28;20073;-58
2022/06/29 12:27:28;;;;;;;2.00;1.80;;;26.00;99.90;;;;;;5089607;28;20036;-59
2022/06/29 12:29:54;;;;;;;10.95;1.80;;;26.60;99.90;;;;;;5089650;28;20036;-59
2022/06/29 12:32:19;;;;;;;2.83;1.80;;;27.20;99.90;;;;;;5090209;28;20534;-60
2022/06/29 12:34:45;;;;;;;4.22;1.75;;;28.00;99.90;;;;;;5090256;28;20024;-58
2022/06/29 12:37:10;;;;;;;2.15;1.27;;;28.30;99.90;;;;;;5082425;28;20070;-61
2022/06/29 12:39:36;;;;;;;2.90;1.90;;;28.50;99.90;;;;;;5069306;28;20154;-59
2022/06/29 12:42:03;;;;;;;2.83;1.80;;;28.40;99.90;;;;;;5069610;28;20029;-59
2022/06/29 12:44:29;;;;;;;3.38;2.63;;;28.30;99.90;;;;;;5088286;28;20032;-60
2022/06/29 12:46:55;;;;;;;2.65;1.80;;;28.20;99.90;;;;;;5089744;28;20032;-58
2022/06/29 12:49:21;;;;;;;1.70;1.60;;;27.90;99.90;;;;;;5090175;28;20033;-58
2022/06/29 12:51:47;;;;;;;2.38;2.10;;;27.90;99.90;;;;;;5090220;28;20032;-58
2022/06/29 12:54:13;;;;;;;5.13;2.15;;;27.70;99.90;;;;;;5077900;28;20024;-59
2022/06/29 12:56:39;;;;;;;3.40;2.10;;;28.30;99.90;;;;;;5070762;28;20020;-60
2022/06/29 12:59:04;;;;;;;4.28;1.98;;;28.50;99.90;;;;;;5088246;28;20020;-60
2022/06/29 13:01:30;;;;;;;3.42;2.47;;;28.80;99.90;;;;;;5091008;28;20028;-59
2022/06/29 13:03:56;;;;;;;2.58;1.90;;;29.00;99.90;;;;;;5090710;28;20038;-60